Time;durP1;ratioP1;P1;durP2;ratioP2;P2;SDS_P1;SDS_P2;PMS_P1;PMS_P2;Temp;Humidity;BMP_temperature;BMP_pressure;BME280_temperature;BME280_humidity;BME280_pressure;Samples;Min_cycle;Max_cycle;Signal;HPM_P1;HPM_P2
2021/12/19 00:00:53;;;;;;;;;;;;;;;4.70;71.86;100733.75;4471038;31;33447;-64
2021/12/19 00:03:47;;;;;;;;;;;;;;;4.69;71.76;100721.66;4492611;31;33291;-64
2021/12/19 00:08:54;;;;;;;;;;;;;;;4.56;72.15;100726.56;4487643;31;33875;-64
2021/12/19 00:11:22;;;;;;;;;;;;;;;4.63;72.08;100718.59;4488986;31;33952;-64
2021/12/19 00:13:49;;;;;;;;;;;;;;;4.65;71.89;100709.34;4485656;31;33472;-64
2021/12/19 00:16:17;;;;;;;;;;;;;;;4.42;72.76;100705.78;4490265;31;33773;-64
2021/12/19 00:18:46;;;;;;;;;;;;;;;4.39;72.96;100702.97;4493059;31;34019;-64
2021/12/19 00:21:15;;;;;;;;;;;;;;;4.65;72.00;100709.34;4493456;31;34080;-64
2021/12/19 00:23:42;;;;;;;;;;;;;;;4.97;70.97;100709.44;4493939;31;33499;-64
2021/12/19 00:26:09;;;;;;;;;;;;;;;4.73;71.50;100692.91;4493510;31;34263;-64
2021/12/19 00:28:37;;;;;;;;;;;;;;;4.65;72.13;100696.53;4486354;31;34015;-64
2021/12/19 00:31:04;;;;;;;;;;;;;;;4.70;71.87;100692.69;4490327;31;34102;-64
2021/12/19 00:33:31;;;;;;;;;;;;;;;4.62;72.54;100679.22;4485234;31;33272;-64
2021/12/19 00:35:59;;;;;;;;;;;;;;;4.64;72.70;100685.38;4489572;31;35030;-64
2021/12/19 00:38:26;;;;;;;;;;;;;;;4.55;73.21;100682.03;4478353;31;34151;-64
2021/12/19 00:40:54;;;;;;;;;;;;;;;4.43;73.75;100679.38;4490978;31;34186;-63
2021/12/19 00:43:33;;;;;;;;;;;;;;;4.50;73.60;100673.97;4490902;31;33038;-63
2021/12/19 00:46:07;;;;;;;;;;;;;;;4.43;74.30;100676.78;4487224;31;34075;-63
2021/12/19 00:48:35;;;;;;;;;;;;;;;4.69;72.84;100685.75;4485971;31;34749;-63
2021/12/19 00:51:03;;;;;;;;;;;;;;;4.73;73.06;100677.50;4491031;31;34203;-63
2021/12/19 00:53:30;;;;;;;;;;;;;;;4.82;72.69;100674.81;4485035;31;33176;-63
2021/12/19 00:55:57;;;;;;;;;;;;;;;4.73;72.95;100678.44;4486434;31;34265;-63
2021/12/19 00:58:25;;;;;;;;;;;;;;;4.43;74.34;100674.22;4486938;31;33040;-64
2021/12/19 01:00:52;;;;;;;;;;;;;;;4.71;73.28;100674.84;4490502;31;34699;-64
2021/12/19 01:03:21;;;;;;;;;;;;;;;4.77;73.23;100677.03;4494655;31;33075;-63
2021/12/19 01:05:49;;;;;;;;;;;;;;;4.99;72.61;100665.94;4493999;31;34867;-63
2021/12/19 01:08:16;;;;;;;;;;;;;;;4.98;72.34;100679.53;4495841;31;35060;-63
2021/12/19 01:10:44;;;;;;;;;;;;;;;5.03;72.25;100683.38;4491715;31;33973;-64
2021/12/19 01:13:12;;;;;;;;;;;;;;;4.98;72.66;100674.37;4476664;31;33450;-64
2021/12/19 01:15:39;;;;;;;;;;;;;;;4.81;73.52;100661.09;4495347;31;34125;-64
2021/12/19 01:18:06;;;;;;;;;;;;;;;4.77;73.85;100664.19;4492520;31;34034;-64
2021/12/19 01:20:36;;;;;;;;;;;;;;;4.83;73.91;100651.84;4473510;31;34102;-64
2021/12/19 01:23:03;;;;;;;;;;;;;;;4.80;74.07;100649.00;4491509;31;31877;-64
2021/12/19 01:25:31;;;;;;;;;;;;;;;4.77;74.25;100637.59;4493872;31;33566;-64
2021/12/19 01:27:58;;;;;;;;;;;;;;;4.82;74.35;100632.06;4490885;31;33892;-64
2021/12/19 01:30:25;;;;;;;;;;;;;;;4.82;74.38;100620.91;4487109;31;34817;-64
2021/12/19 01:32:53;;;;;;;;;;;;;;;4.90;74.23;100625.88;4491873;31;33347;-64
2021/12/19 01:35:21;;;;;;;;;;;;;;;4.80;74.84;100623.34;4487798;31;34025;-64
2021/12/19 01:37:49;;;;;;;;;;;;;;;5.10;73.76;100603.50;4492170;31;34481;-64
2021/12/19 01:40:17;;;;;;;;;;;;;;;5.18;73.74;100607.56;4476346;31;33938;-65
2021/12/19 01:42:46;;;;;;;;;;;;;;;5.11;73.91;100605.25;4483387;31;31653;-64
2021/12/19 01:45:21;;;;;;;;;;;;;;;5.00;74.63;100608.66;4491464;31;33818;-65
2021/12/19 01:47:49;;;;;;;;;;;;;;;5.23;73.56;100607.91;4492789;31;34534;-65
2021/12/19 01:50:18;;;;;;;;;;;;;;;5.49;72.84;100599.69;4488810;31;33814;-65
2021/12/19 01:52:46;;;;;;;;;;;;;;;5.45;73.01;100592.50;4480280;31;32803;-65
2021/12/19 01:55:14;;;;;;;;;;;;;;;5.46;73.09;100599.44;4485044;31;33654;-64
2021/12/19 01:57:41;;;;;;;;;;;;;;;5.32;73.70;100596.66;4489650;31;34855;-68
2021/12/19 02:00:17;;;;;;;;;;;;;;;5.46;73.36;100591.72;4484101;31;34852;-63
2021/12/19 02:02:45;;;;;;;;;;;;;;;5.39;73.59;100576.59;4490327;31;33528;-65
2021/12/19 02:05:12;;;;;;;;;;;;;;;5.30;73.78;100571.66;4486107;31;33712;-64
2021/12/19 02:07:45;;;;;;;;;;;;;;;5.41;73.56;100568.25;4490165;31;34887;-66
2021/12/19 02:10:14;;;;;;;;;;;;;;;5.58;73.17;100569.56;4493677;31;34082;-65
2021/12/19 02:12:41;;;;;;;;;;;;;;;5.61;73.13;100564.62;4478440;31;31724;-64
2021/12/19 02:15:08;;;;;;;;;;;;;;;5.87;72.06;100560.56;4477051;31;33908;-65
2021/12/19 02:17:36;;;;;;;;;;;;;;;5.76;72.36;100556.31;4490566;31;33517;-65
2021/12/19 02:20:08;;;;;;;;;;;;;;;5.56;73.14;100554.78;4493805;31;34505;-65
2021/12/19 02:22:35;;;;;;;;;;;;;;;5.87;72.17;100550.28;4490136;31;34101;-65
2021/12/19 02:25:03;;;;;;;;;;;;;;;5.78;72.68;100544.47;4488804;31;34309;-65
2021/12/19 02:27:30;;;;;;;;;;;;;;;6.04;71.63;100531.91;4476731;32;32298;-65
2021/12/19 02:29:57;;;;;;;;;;;;;;;5.78;72.60;100526.47;4489921;31;34964;-64
2021/12/19 02:32:26;;;;;;;;;;;;;;;5.69;72.95;100522.41;4490359;31;33357;-65
2021/12/19 02:34:56;;;;;;;;;;;;;;;6.18;71.17;100514.03;4493964;31;34065;-65
2021/12/19 02:50:45;;;;;;;;;;;;;;;6.40;70.64;100501.94;4487344;31;34643;-64
2021/12/19 02:53:13;;;;;;;;;;;;;;;7.15;67.31;100492.62;4487543;31;33210;-64
2021/12/19 02:55:42;;;;;;;;;;;;;;;6.62;69.24;100482.91;4488856;31;34759;-66
2021/12/19 02:58:09;;;;;;;;;;;;;;;7.14;67.51;100476.25;4497311;31;34891;-66
2021/12/19 03:00:36;;;;;;;;;;;;;;;7.26;66.84;100483.94;4487713;31;34843;-65
2021/12/19 03:03:04;;;;;;;;;;;;;;;6.92;67.88;100478.16;4469743;31;33880;-65
2021/12/19 03:05:33;;;;;;;;;;;;;;;6.61;69.09;100479.44;4495633;31;34196;-63
2021/12/19 03:08:03;;;;;;;;;;;;;;;6.73;68.89;100471.69;4480757;32;34909;-68
2021/12/19 03:18:36;;;;;;;;;;;;;;;6.68;68.70;100442.12;4491049;31;34170;-66
2021/12/19 03:21:03;;;;;;;;;;;;;;;6.39;69.73;100443.53;4468524;31;33635;-65
2021/12/19 03:23:31;;;;;;;;;;;;;;;6.33;70.15;100432.81;4492367;31;33866;-65
2021/12/19 03:25:58;;;;;;;;;;;;;;;6.49;69.61;100429.69;4479516;31;34187;-65
2021/12/19 03:28:25;;;;;;;;;;;;;;;6.90;67.71;100434.25;4490519;31;33880;-66
2021/12/19 03:30:52;;;;;;;;;;;;;;;6.56;69.12;100420.69;4491014;31;34083;-65
2021/12/19 03:33:20;;;;;;;;;;;;;;;6.46;68.95;100426.87;4491480;31;33978;-65
2021/12/19 03:35:48;;;;;;;;;;;;;;;6.19;70.09;100423.22;4474605;32;32521;-67
2021/12/19 03:38:15;;;;;;;;;;;;;;;6.04;70.62;100418.75;4480511;31;34023;-64
2021/12/19 03:40:51;;;;;;;;;;;;;;;6.31;69.74;100398.34;4489355;31;34107;-63
2021/12/19 03:43:20;;;;;;;;;;;;;;;6.41;69.15;100395.69;4476946;31;33406;-64
2021/12/19 03:45:48;;;;;;;;;;;;;;;6.45;69.16;100386.47;4490994;31;33987;-66
2021/12/19 03:48:16;;;;;;;;;;;;;;;5.99;70.92;100380.59;4480364;31;33708;-65
2021/12/19 03:50:45;;;;;;;;;;;;;;;5.51;72.60;100389.97;4491949;31;33984;-65
2021/12/19 03:53:13;;;;;;;;;;;;;;;5.88;71.16;100379.81;4486939;31;33269;-65
2021/12/19 03:55:40;;;;;;;;;;;;;;;5.92;70.85;100368.97;4492063;31;33796;-65
2021/12/19 03:58:08;;;;;;;;;;;;;;;6.26;70.08;100379.16;4489862;31;34993;-65
2021/12/19 04:00:35;;;;;;;;;;;;;;;6.21;69.56;100376.22;4490240;31;34685;-65
2021/12/19 04:03:04;;;;;;;;;;;;;;;6.31;69.48;100388.06;4491984;31;33353;-65
2021/12/19 04:05:32;;;;;;;;;;;;;;;5.98;70.61;100382.28;4491858;31;34897;-65
2021/12/19 04:07:59;;;;;;;;;;;;;;;5.96;70.47;100386.44;4489878;31;34514;-66
2021/12/19 04:10:27;;;;;;;;;;;;;;;6.02;70.17;100381.72;4490728;31;34837;-65
2021/12/19 04:12:54;;;;;;;;;;;;;;;5.78;71.10;100387.66;4491445;31;33276;-64
2021/12/19 04:15:22;;;;;;;;;;;;;;;5.69;71.09;100373.31;4491622;31;34921;-64
2021/12/19 04:17:49;;;;;;;;;;;;;;;5.72;71.44;100383.84;4491457;31;33959;-67
2021/12/19 04:20:18;;;;;;;;;;;;;;;5.77;70.59;100366.16;4486050;31;33098;-67
2021/12/19 04:22:46;;;;;;;;;;;;;;;5.32;72.65;100386.03;4489029;31;33372;-64
2021/12/19 04:25:14;;;;;;;;;;;;;;;5.31;72.32;100384.25;4487493;31;33829;-64
2021/12/19 04:27:41;;;;;;;;;;;;;;;5.36;72.35;100392.28;4490128;31;33889;-65
2021/12/19 04:30:10;;;;;;;;;;;;;;;5.69;70.78;100388.75;4490134;31;33988;-64
2021/12/19 04:32:42;;;;;;;;;;;;;;;5.43;71.67;100388.53;4473703;31;33340;-65
2021/12/19 04:35:10;;;;;;;;;;;;;;;5.57;70.84;100382.72;4478092;31;31762;-65
2021/12/19 04:40:29;;;;;;;;;;;;;;;5.35;71.28;100376.75;4488733;31;34153;-64
2021/12/19 04:59:49;;;;;;;;;;;;;;;5.31;71.34;100343.16;4489666;31;33330;-68
2021/12/19 05:15:37;;;;;;;;;;;;;;;5.50;70.83;100323.94;4496093;31;33854;-68
2021/12/19 05:18:08;;;;;;;;;;;;;;;5.56;70.47;100311.53;4493632;31;34174;-64
2021/12/19 05:20:36;;;;;;;;;;;;;;;5.32;71.29;100298.69;4491025;31;34005;-67
2021/12/19 05:23:12;;;;;;;;;;;;;;;5.24;71.87;100310.06;4466388;31;33257;-66
2021/12/19 05:25:39;;;;;;;;;;;;;;;5.12;71.98;100299.78;4491559;31;33009;-64
2021/12/19 05:28:07;;;;;;;;;;;;;;;5.09;72.46;100304.69;4490106;31;34812;-65
2021/12/19 05:30:34;;;;;;;;;;;;;;;5.44;71.49;100290.97;4490903;31;33630;-65
2021/12/19 05:33:02;;;;;;;;;;;;;;;5.52;71.21;100301.81;4491646;31;33923;-65
2021/12/19 05:35:59;;;;;;;;;;;;;;;4.83;73.37;100307.87;4476255;31;32589;-65
2021/12/19 05:46:40;;;;;;;;;;;;;;;5.27;72.42;100289.75;4492919;31;34068;-65
2021/12/19 05:49:08;;;;;;;;;;;;;;;5.16;72.67;100282.94;4486477;31;33884;-65
2021/12/19 05:51:36;;;;;;;;;;;;;;;5.13;73.44;100277.56;4494690;31;33720;-64
2021/12/19 05:54:03;;;;;;;;;;;;;;;5.29;72.68;100277.94;4471315;31;34086;-66
2021/12/19 05:56:31;;;;;;;;;;;;;;;5.39;72.46;100283.72;4492058;31;33266;-68
2021/12/19 05:58:58;;;;;;;;;;;;;;;5.47;72.07;100293.78;4491852;31;36512;-63
2021/12/19 06:01:25;;;;;;;;;;;;;;;5.34;72.38;100290.22;4476054;31;33281;-66
2021/12/19 06:03:53;;;;;;;;;;;;;;;5.01;74.20;100299.78;4491448;31;34026;-65
2021/12/19 06:06:20;;;;;;;;;;;;;;;5.59;72.05;100283.50;4488188;31;32997;-64
2021/12/19 06:08:47;;;;;;;;;;;;;;;6.19;69.78;100285.19;4475537;31;33742;-65
2021/12/19 06:11:15;;;;;;;;;;;;;;;6.00;70.24;100288.16;4487924;31;34240;-64
2021/12/19 06:13:43;;;;;;;;;;;;;;;6.26;69.29;100287.41;4492319;31;34948;-64
2021/12/19 06:16:10;;;;;;;;;;;;;;;5.92;70.00;100284.13;4479284;31;31720;-67
2021/12/19 06:18:38;;;;;;;;;;;;;;;5.95;71.10;100283.44;4487966;31;34092;-65
2021/12/19 06:21:05;;;;;;;;;;;;;;;6.36;69.16;100278.66;4489464;31;34956;-65
2021/12/19 06:23:33;;;;;;;;;;;;;;;6.17;69.64;100273.03;4487715;31;34867;-65
2021/12/19 06:26:00;;;;;;;;;;;;;;;6.36;69.30;100278.66;4487269;31;33360;-65
2021/12/19 06:28:28;;;;;;;;;;;;;;;6.38;68.52;100277.06;4487661;31;34783;-65
2021/12/19 06:30:55;;;;;;;;;;;;;;;6.73;67.68;100265.72;4476771;31;33948;-65
2021/12/19 06:33:22;;;;;;;;;;;;;;;6.77;67.17;100278.00;4488898;31;34027;-65
2021/12/19 06:35:54;;;;;;;;;;;;;;;6.64;67.86;100280.53;4490588;31;34009;-65
2021/12/19 06:38:21;;;;;;;;;;;;;;;6.46;68.49;100269.88;4482256;31;32462;-65
2021/12/19 06:40:49;;;;;;;;;;;;;;;6.18;69.49;100259.34;4487475;31;34329;-65
2021/12/19 06:43:16;;;;;;;;;;;;;;;6.21;69.25;100257.00;4486120;31;33670;-65
2021/12/19 06:45:43;;;;;;;;;;;;;;;5.89;70.47;100248.81;4476519;31;33905;-64
2021/12/19 06:48:10;;;;;;;;;;;;;;;5.44;72.32;100246.41;4489467;31;33713;-65
2021/12/19 06:50:38;;;;;;;;;;;;;;;5.47;72.76;100236.38;4491918;31;34195;-65
2021/12/19 06:53:05;;;;;;;;;;;;;;;5.81;71.04;100243.91;4486389;31;34780;-65
2021/12/19 06:55:32;;;;;;;;;;;;;;;5.88;71.00;100236.72;4487934;31;33442;-65
2021/12/19 06:58:00;;;;;;;;;;;;;;;5.55;72.18;100240.37;4490546;31;33920;-65
2021/12/19 07:00:27;;;;;;;;;;;;;;;5.83;71.03;100225.25;4493708;31;33568;-65
2021/12/19 07:02:55;;;;;;;;;;;;;;;5.94;70.92;100225.09;4485941;31;33840;-65
2021/12/19 07:05:23;;;;;;;;;;;;;;;5.75;71.45;100233.19;4487754;31;33359;-65
2021/12/19 07:07:50;;;;;;;;;;;;;;;5.84;71.12;100228.69;4494528;31;34135;-64
2021/12/19 07:10:17;;;;;;;;;;;;;;;5.62;72.26;100229.75;4471339;31;33017;-64
2021/12/19 07:12:45;;;;;;;;;;;;;;;5.49;73.41;100221.97;4486370;31;34227;-65
2021/12/19 07:15:14;;;;;;;;;;;;;;;5.61;72.49;100224.50;4487609;31;33089;-65
2021/12/19 07:17:41;;;;;;;;;;;;;;;5.13;74.10;100221.06;4488750;31;34380;-65
2021/12/19 07:20:09;;;;;;;;;;;;;;;5.43;73.56;100214.69;4494444;31;34591;-65
2021/12/19 07:22:39;;;;;;;;;;;;;;;5.57;72.09;100213.09;4491994;31;34157;-65
2021/12/19 07:25:07;;;;;;;;;;;;;;;5.45;72.71;100212.25;4489914;31;33443;-65
2021/12/19 07:27:34;;;;;;;;;;;;;;;6.32;70.23;100217.50;4478435;31;33209;-65
2021/12/19 07:30:02;;;;;;;;;;;;;;;6.41;69.52;100210.41;4484856;31;34112;-65
2021/12/19 07:32:31;;;;;;;;;;;;;;;5.59;72.08;100206.41;4492540;31;34156;-65
2021/12/19 07:35:18;;;;;;;;;;;;;;;6.08;70.80;100209.87;4483973;31;33142;-64
2021/12/19 07:37:48;;;;;;;;;;;;;;;5.81;71.66;100213.03;4487935;31;34454;-64
2021/12/19 07:40:19;;;;;;;;;;;;;;;5.20;74.22;100209.59;4489580;31;34035;-67
2021/12/19 07:42:50;;;;;;;;;;;;;;;4.83;75.85;100206.87;4490185;31;33239;-63
2021/12/19 07:45:18;;;;;;;;;;;;;;;5.07;74.75;100218.94;4490968;31;34120;-66
2021/12/19 07:47:45;;;;;;;;;;;;;;;5.49;73.40;100214.25;4489698;31;34452;-67
2021/12/19 07:50:16;;;;;;;;;;;;;;;5.07;74.68;100213.81;4491203;31;34286;-65
2021/12/19 07:52:44;;;;;;;;;;;;;;;5.21;73.65;100204.53;4476359;31;34658;-65
2021/12/19 07:55:12;;;;;;;;;;;;;;;5.69;72.67;100203.69;4489644;31;33288;-65
2021/12/19 07:57:40;;;;;;;;;;;;;;;5.82;71.74;100202.00;4495304;31;34074;-65
2021/12/19 08:00:08;;;;;;;;;;;;;;;5.28;74.47;100199.06;4487157;31;34259;-64
2021/12/19 08:02:38;;;;;;;;;;;;;;;4.86;76.28;100195.16;4473594;31;34284;-64
2021/12/19 08:05:07;;;;;;;;;;;;;;;5.57;73.69;100195.12;4475640;31;31851;-66
2021/12/19 08:07:39;;;;;;;;;;;;;;;6.06;71.67;100193.41;4488588;31;34982;-65
2021/12/19 08:10:14;;;;;;;;;;;;;;;5.64;72.67;100179.34;4494547;31;34856;-65
2021/12/19 08:12:48;;;;;;;;;;;;;;;5.80;72.29;100188.16;4489360;31;35000;-65
2021/12/19 08:15:19;;;;;;;;;;;;;;;5.42;73.91;100171.78;4492079;31;33293;-65
2021/12/19 08:17:47;;;;;;;;;;;;;;;5.09;75.45;100171.16;4493305;31;33595;-65
2021/12/19 08:20:19;;;;;;;;;;;;;;;5.30;74.59;100156.41;4469096;31;32888;-64
2021/12/19 08:22:51;;;;;;;;;;;;;;;5.50;73.87;100159.50;4490009;31;33221;-67
2021/12/19 08:25:18;;;;;;;;;;;;;;;5.93;72.75;100161.59;4484911;31;33668;-65
2021/12/19 08:27:45;;;;;;;;;;;;;;;5.77;73.36;100152.81;4487584;31;34640;-65
2021/12/19 08:30:13;;;;;;;;;;;;;;;5.38;74.94;100143.22;4492977;31;34727;-65
2021/12/19 08:32:40;;;;;;;;;;;;;;;5.84;73.34;100141.28;4488954;31;33965;-68
2021/12/19 08:35:08;;;;;;;;;;;;;;;5.87;73.11;100147.53;4488612;31;33154;-64
2021/12/19 08:37:35;;;;;;;;;;;;;;;6.52;70.72;100138.16;4480494;31;34686;-66
2021/12/19 08:40:04;;;;;;;;;;;;;;;6.33;71.05;100128.31;4492903;31;33488;-65
2021/12/19 08:42:33;;;;;;;;;;;;;;;5.65;73.97;100132.28;4487364;31;34881;-67
2021/12/19 08:45:00;;;;;;;;;;;;;;;6.45;70.82;100135.19;4488658;31;32952;-63
2021/12/19 08:47:28;;;;;;;;;;;;;;;6.37;70.99;100136.34;4490472;31;34093;-64
2021/12/19 08:49:55;;;;;;;;;;;;;;;6.36;70.77;100123.41;4490869;31;35096;-62
2021/12/19 08:52:22;;;;;;;;;;;;;;;6.10;72.13;100117.38;4476793;31;34922;-65
2021/12/19 08:54:50;;;;;;;;;;;;;;;6.46;70.80;100112.91;4495074;31;33371;-65
2021/12/19 08:57:17;;;;;;;;;;;;;;;6.33;71.31;100118.91;4489673;31;34041;-65
2021/12/19 08:59:44;;;;;;;;;;;;;;;6.17;71.54;100111.84;4482948;31;33437;-67
2021/12/19 09:02:12;;;;;;;;;;;;;;;5.69;73.19;100108.59;4482553;31;34266;-67
2021/12/19 09:04:39;;;;;;;;;;;;;;;6.09;72.05;100113.91;4497472;31;33254;-63
2021/12/19 09:07:06;;;;;;;;;;;;;;;6.08;72.30;100096.72;4487026;32;34608;-63
2021/12/19 09:09:33;;;;;;;;;;;;;;;6.15;71.91;100097.13;4487610;31;34894;-65
2021/12/19 09:12:01;;;;;;;;;;;;;;;5.99;72.21;100090.94;4490000;31;34216;-65
2021/12/19 09:14:28;;;;;;;;;;;;;;;6.03;72.46;100099.78;4492832;31;33288;-66
2021/12/19 09:16:55;;;;;;;;;;;;;;;6.24;71.70;100087.47;4489171;31;34227;-63
2021/12/19 09:19:22;;;;;;;;;;;;;;;6.23;71.21;100083.97;4487759;31;35073;-64
2021/12/19 09:24:35;;;;;;;;;;;;;;;6.26;71.50;100066.19;4490675;31;34188;-62
2021/12/19 09:27:03;;;;;;;;;;;;;;;6.29;71.24;100065.47;4487204;31;34159;-64
2021/12/19 09:29:30;;;;;;;;;;;;;;;6.32;70.88;100070.84;4477889;31;34975;-64
2021/12/19 09:31:59;;;;;;;;;;;;;;;6.45;70.73;100057.06;4476872;31;34104;-65
2021/12/19 09:34:27;;;;;;;;;;;;;;;6.30;70.89;100046.69;4486837;32;33995;-65
2021/12/19 09:36:54;;;;;;;;;;;;;;;6.18;71.50;100053.59;4491789;31;34157;-64
2021/12/19 09:39:23;;;;;;;;;;;;;;;6.53;70.30;100060.16;4486846;32;34013;-66
2021/12/19 09:42:02;;;;;;;;;;;;;;;6.42;70.56;100042.34;4471575;31;33895;-65
2021/12/19 09:44:29;;;;;;;;;;;;;;;6.35;70.05;100039.25;4489537;31;33285;-65
2021/12/19 09:46:56;;;;;;;;;;;;;;;6.29;70.70;100032.91;4480176;31;33671;-65
2021/12/19 09:49:24;;;;;;;;;;;;;;;6.52;70.08;100035.22;4491313;31;34677;-66
2021/12/19 09:51:52;;;;;;;;;;;;;;;6.68;69.40;100030.25;4485174;31;34145;-64
2021/12/19 09:54:20;;;;;;;;;;;;;;;6.85;68.95;100028.75;4473290;31;33778;-65
2021/12/19 09:56:48;;;;;;;;;;;;;;;6.71;68.86;99998.69;4490140;31;34937;-65
2021/12/19 09:59:17;;;;;;;;;;;;;;;6.81;68.53;99994.19;4487996;31;34722;-65
2021/12/19 10:01:44;;;;;;;;;;;;;;;6.89;68.33;99984.38;4488720;31;34018;-65
2021/12/19 10:04:28;;;;;;;;;;;;;;;6.85;67.82;99978.13;4478123;32;33212;-66
2021/12/19 10:07:03;;;;;;;;;;;;;;;7.02;67.52;99980.88;4473500;31;33479;-65
2021/12/19 10:09:31;;;;;;;;;;;;;;;6.84;67.57;99966.06;4498383;31;33990;-66
2021/12/19 10:12:12;;;;;;;;;;;;;;;6.61;68.41;99966.31;4485929;31;34617;-66
2021/12/19 10:14:41;;;;;;;;;;;;;;;6.49;68.74;99962.19;4483477;31;34011;-67
2021/12/19 10:17:16;;;;;;;;;;;;;;;6.56;68.41;99957.41;4475000;31;34013;-67
2021/12/19 10:19:44;;;;;;;;;;;;;;;6.52;68.38;99956.31;4487852;31;34106;-67
2021/12/19 10:22:29;;;;;;;;;;;;;;;6.51;68.69;99944.25;4491154;31;34245;-67
2021/12/19 10:25:08;;;;;;;;;;;;;;;6.44;68.62;99935.25;4475387;32;33367;-67
2021/12/19 10:27:36;;;;;;;;;;;;;;;6.33;69.53;99920.81;4488810;31;34185;-67
2021/12/19 10:30:24;;;;;;;;;;;;;;;6.44;68.68;99919.81;4475725;31;32787;-68
2021/12/19 10:33:02;;;;;;;;;;;;;;;6.53;68.49;99927.22;4474595;31;33916;-68
2021/12/19 10:35:29;;;;;;;;;;;;;;;6.68;68.28;99927.28;4489412;31;33776;-66
2021/12/19 10:37:57;;;;;;;;;;;;;;;6.73;67.55;99915.59;4486064;32;34161;-66
2021/12/19 10:40:25;;;;;;;;;;;;;;;6.66;67.90;99913.44;4472702;31;34061;-67
2021/12/19 10:42:56;;;;;;;;;;;;;;;6.53;68.06;99910.88;4488830;31;34803;-66
2021/12/19 10:45:35;;;;;;;;;;;;;;;6.79;67.53;99912.50;4486384;31;33243;-66
2021/12/19 10:48:07;;;;;;;;;;;;;;;6.75;67.26;99914.00;4480865;31;34255;-66
2021/12/19 10:50:41;;;;;;;;;;;;;;;6.80;67.28;99917.75;4489380;31;34878;-69
2021/12/19 10:53:12;;;;;;;;;;;;;;;6.78;67.42;99903.91;4475454;31;32943;-64
2021/12/19 10:55:47;;;;;;;;;;;;;;;6.74;67.20;99930.25;4486206;31;34039;-63
2021/12/19 10:58:18;;;;;;;;;;;;;;;6.55;67.53;99914.44;4489502;31;34929;-63
2021/12/19 11:00:56;;;;;;;;;;;;;;;6.78;67.45;99936.47;4486413;31;35117;-64
2021/12/19 11:03:50;;;;;;;;;;;;;;;6.64;67.70;99935.59;4485971;32;34162;-63
2021/12/19 11:06:23;;;;;;;;;;;;;;;6.65;67.34;99921.97;4472711;32;32650;-65
2021/12/19 11:08:51;;;;;;;;;;;;;;;6.68;67.38;99927.28;4489013;31;34172;-63
2021/12/19 11:11:34;;;;;;;;;;;;;;;6.66;67.58;99934.94;4474270;32;34756;-64
2021/12/19 11:14:03;;;;;;;;;;;;;;;6.50;67.79;99930.47;4488361;31;34046;-65
2021/12/19 11:16:31;;;;;;;;;;;;;;;6.56;67.66;99927.41;4490531;31;33950;-63
2021/12/19 11:18:58;;;;;;;;;;;;;;;6.63;67.05;99936.41;4488895;31;34929;-64
2021/12/19 11:21:32;;;;;;;;;;;;;;;6.49;67.54;99944.16;4488732;31;34332;-65
2021/12/19 11:24:01;;;;;;;;;;;;;;;6.14;69.04;99961.59;4486999;31;34477;-65
2021/12/19 11:26:28;;;;;;;;;;;;;;;6.72;67.35;99960.12;4480275;31;33163;-66
2021/12/19 11:28:56;;;;;;;;;;;;;;;6.53;67.60;99970.97;4477433;31;34171;-64
2021/12/19 11:31:26;;;;;;;;;;;;;;;6.01;68.94;99960.81;4472184;31;32010;-65
2021/12/19 11:34:07;;;;;;;;;;;;;;;6.52;67.82;99965.72;4476287;31;33560;-65
2021/12/19 11:36:38;;;;;;;;;;;;;;;6.70;66.99;99951.44;4486460;31;34125;-65
2021/12/19 11:39:06;;;;;;;;;;;;;;;6.13;68.82;99952.09;4474869;32;34882;-66
2021/12/19 11:41:34;;;;;;;;;;;;;;;5.95;69.71;99955.25;4471451;32;34954;-65
2021/12/19 11:44:05;;;;;;;;;;;;;;;5.86;70.16;99957.19;4487741;31;34174;-65
2021/12/19 11:46:42;;;;;;;;;;;;;;;6.63;67.94;99949.28;4488202;31;32859;-64
2021/12/19 11:49:10;;;;;;;;;;;;;;;7.07;65.71;99951.16;4486582;31;32418;-66
2021/12/19 11:51:38;;;;;;;;;;;;;;;7.04;65.48;99940.66;4467013;31;782376;-65
2021/12/19 11:54:16;;;;;;;;;;;;;;;6.58;66.25;99945.53;4489184;31;34113;-64
2021/12/19 11:57:10;;;;;;;;;;;;;;;6.56;66.48;99936.81;4486049;31;34063;-64
2021/12/19 11:59:39;;;;;;;;;;;;;;;7.04;64.94;99935.50;4490166;31;34716;-65
2021/12/19 12:02:26;;;;;;;;;;;;;;;7.30;64.47;99939.63;4483682;31;33378;-65
2021/12/19 12:05:12;;;;;;;;;;;;;;;7.12;64.91;99936.84;4485603;32;33838;-64
2021/12/19 12:07:58;;;;;;;;;;;;;;;7.29;64.23;99935.28;4490786;31;33267;-64
2021/12/19 12:10:27;;;;;;;;;;;;;;;6.26;67.82;99939.25;4489829;31;34503;-66
2021/12/19 12:12:54;;;;;;;;;;;;;;;6.12;68.29;99943.47;4491751;31;34183;-66
2021/12/19 12:15:25;;;;;;;;;;;;;;;6.79;65.56;99936.56;4467860;32;34301;-66
2021/12/19 12:17:57;;;;;;;;;;;;;;;6.64;65.93;99940.75;4485627;31;34341;-66
2021/12/19 12:20:26;;;;;;;;;;;;;;;6.46;66.53;99936.22;4476882;31;34747;-66
2021/12/19 12:22:55;;;;;;;;;;;;;;;6.44;66.85;99931.78;4474610;31;34295;-66
2021/12/19 12:25:24;;;;;;;;;;;;;;;6.01;68.73;99919.66;4491705;31;34482;-65
2021/12/19 12:27:54;;;;;;;;;;;;;;;6.04;68.30;99922.41;4487887;31;33100;-66
2021/12/19 12:30:22;;;;;;;;;;;;;;;6.23;67.58;99927.06;4473440;32;33353;-65
2021/12/19 12:32:49;;;;;;;;;;;;;;;5.85;69.32;99927.13;4487007;31;34587;-66
2021/12/19 12:35:17;;;;;;;;;;;;;;;6.04;68.82;99913.81;4478488;32;32430;-67
2021/12/19 12:37:45;;;;;;;;;;;;;;;6.88;65.32;99901.09;4484776;32;33572;-67
2021/12/19 12:40:18;;;;;;;;;;;;;;;6.50;66.46;99906.44;4464586;31;33894;-67
2021/12/19 12:42:56;;;;;;;;;;;;;;;6.09;68.09;99903.03;4484857;31;34217;-65
2021/12/19 12:45:24;;;;;;;;;;;;;;;6.67;66.57;99899.78;4485013;31;34001;-66
2021/12/19 12:47:52;;;;;;;;;;;;;;;6.50;66.66;99891.88;4487818;31;33101;-66
2021/12/19 12:50:19;;;;;;;;;;;;;;;6.33;67.05;99897.66;4484817;31;33742;-66
2021/12/19 12:52:46;;;;;;;;;;;;;;;6.40;66.95;99884.41;4484754;31;34783;-67
2021/12/19 12:55:14;;;;;;;;;;;;;;;6.29;67.40;99887.97;4486600;32;33989;-66
2021/12/19 12:57:43;;;;;;;;;;;;;;;6.41;67.21;99886.19;4492413;31;34139;-66
2021/12/19 13:00:20;;;;;;;;;;;;;;;6.43;67.07;99893.97;4472529;32;34872;-66
2021/12/19 13:03:09;;;;;;;;;;;;;;;6.01;68.20;99883.66;4487774;31;34319;-66
2021/12/19 13:05:37;;;;;;;;;;;;;;;6.28;67.75;99879.37;4479791;31;34028;-66
2021/12/19 13:08:04;;;;;;;;;;;;;;;6.10;68.24;99878.19;4473337;31;32689;-65
2021/12/19 13:10:31;;;;;;;;;;;;;;;6.06;68.75;99871.06;4495185;31;33970;-67
2021/12/19 13:12:58;;;;;;;;;;;;;;;6.33;67.67;99874.50;4488018;31;35113;-66
2021/12/19 13:15:26;;;;;;;;;;;;;;;5.88;69.12;99868.19;4464870;31;34578;-66
2021/12/19 13:17:53;;;;;;;;;;;;;;;6.16;68.36;99863.19;4490205;31;33234;-66
2021/12/19 13:20:25;;;;;;;;;;;;;;;6.48;66.88;99857.44;4488896;31;35788;-66
2021/12/19 13:22:54;;;;;;;;;;;;;;;6.30;67.16;99851.19;4493894;31;34092;-66
2021/12/19 13:25:22;;;;;;;;;;;;;;;6.13;68.13;99867.22;4486831;31;34062;-66
2021/12/19 13:27:54;;;;;;;;;;;;;;;6.00;69.02;99865.56;4471652;32;33805;-66
2021/12/19 13:30:24;;;;;;;;;;;;;;;5.83;69.13;99851.56;4475268;32;33797;-66
2021/12/19 13:32:56;;;;;;;;;;;;;;;6.08;68.80;99848.91;4486988;31;35088;-65
2021/12/19 13:35:27;;;;;;;;;;;;;;;6.34;67.33;99827.41;4488236;31;34061;-65
2021/12/19 13:38:21;;;;;;;;;;;;;;;5.93;69.14;99833.41;4466027;32;34839;-66
2021/12/19 13:40:52;;;;;;;;;;;;;;;6.15;68.62;99816.78;4488679;31;33840;-66
2021/12/19 13:43:20;;;;;;;;;;;;;;;6.03;68.83;99825.50;4478082;31;34070;-66
2021/12/19 13:45:56;;;;;;;;;;;;;;;5.81;69.71;99806.88;4496975;31;33947;-66
2021/12/19 13:48:23;;;;;;;;;;;;;;;5.85;69.43;99803.72;4489244;31;33158;-66
2021/12/19 13:50:55;;;;;;;;;;;;;;;5.82;69.86;99804.44;4477782;31;34951;-65
2021/12/19 13:53:22;;;;;;;;;;;;;;;6.03;68.78;99810.06;4489673;31;34219;-65
2021/12/19 13:55:51;;;;;;;;;;;;;;;6.08;68.78;99803.53;4478595;31;34789;-65
2021/12/19 13:58:21;;;;;;;;;;;;;;;6.13;68.35;99805.50;4476378;31;33114;-65
2021/12/19 14:00:51;;;;;;;;;;;;;;;5.95;68.99;99807.75;4497741;31;33975;-65
2021/12/19 14:03:37;;;;;;;;;;;;;;;6.01;68.46;99790.22;4487332;31;33215;-65
2021/12/19 14:06:05;;;;;;;;;;;;;;;5.98;68.79;99816.59;4490754;31;34171;-64
2021/12/19 14:08:33;;;;;;;;;;;;;;;6.16;67.78;99816.88;4486920;31;34075;-67
2021/12/19 14:11:02;;;;;;;;;;;;;;;6.20;67.95;99810.22;4490299;31;34862;-65